createdAt,value
2023-03-23T15:57:53.428Z,3.80
2023-03-23T15:58:55.007Z,3.13
2023-03-23T15:59:56.497Z,3.67
2023-03-23T16:00:59.777Z,4.25
2023-03-23T16:02:01.556Z,2.47
2023-03-23T16:03:06.403Z,5.80
2023-03-23T16:04:15.237Z,3.60
2023-03-23T16:05:16.843Z,4.30
2023-03-23T16:06:24.267Z,3.20
2023-03-23T16:07:26.905Z,6.25
2023-03-23T16:08:28.687Z,4.20
2023-03-23T16:09:30.188Z,5.35
2023-03-23T16:10:31.673Z,3.58
2023-03-23T16:11:33.924Z,6.38
2023-03-23T16:12:35.560Z,4.32
2023-03-23T16:13:37.034Z,4.35
2023-03-23T16:14:39.385Z,3.50
2023-03-23T16:15:41.160Z,3.60
2023-03-23T16:16:50.782Z,4.25
2023-03-23T16:17:52.616Z,3.80
2023-03-23T16:18:54.725Z,3.55
2023-03-23T16:19:56.122Z,5.00
2023-03-23T16:20:57.970Z,3.13
2023-03-23T16:21:59.356Z,6.43
2023-03-23T16:23:01.083Z,4.57
2023-03-23T16:24:02.573Z,5.75
2023-03-23T16:25:04.736Z,4.30
2023-03-23T16:26:06.847Z,5.57
2023-03-23T16:27:10.201Z,7.68
2023-03-23T16:28:15.755Z,4.28
2023-03-23T16:29:33.762Z,3.30
2023-03-23T16:30:40.550Z,4.65
2023-03-23T16:31:42.207Z,5.70
2023-03-23T16:32:44.187Z,3.13
2023-03-23T16:34:47.101Z,3.38
2023-03-23T16:35:48.575Z,5.30
2023-03-23T16:36:50.065Z,4.60
2023-03-23T16:38:08.181Z,3.80
2023-03-23T16:39:13.263Z,3.92
2023-03-23T16:40:16.702Z,3.42
2023-03-23T16:41:18.274Z,2.97
2023-03-23T16:42:19.736Z,3.65
2023-03-23T16:43:21.488Z,3.85
2023-03-23T16:44:22.933Z,2.72
2023-03-23T16:45:26.380Z,3.72
2023-03-23T16:46:27.926Z,5.10
2023-03-23T16:47:29.443Z,5.32
2023-03-23T16:48:30.910Z,4.63
2023-03-23T16:49:32.409Z,2.95
2023-03-23T16:50:34.944Z,4.40
2023-03-23T16:51:36.643Z,3.75
2023-03-23T16:52:46.392Z,5.03
2023-03-23T16:53:48.278Z,2.97
2023-03-23T16:54:49.900Z,4.80
2023-03-23T16:55:52.818Z,4.00
2023-03-23T16:56:54.307Z,3.90
2023-03-23T16:58:05.431Z,6.75
2023-03-23T16:59:15.383Z,4.57
2023-03-23T17:00:21.939Z,3.65
2023-03-23T17:01:23.499Z,4.60
2023-03-23T17:02:25.460Z,3.47
2023-03-23T17:03:27.177Z,3.88
2023-03-23T17:04:33.037Z,3.63
2023-03-23T17:05:36.076Z,4.07
2023-03-23T17:06:37.582Z,4.57
2023-03-23T17:07:40.230Z,3.30
2023-03-23T17:08:41.848Z,6.47
2023-03-23T17:09:43.603Z,6.28
2023-03-23T17:10:45.687Z,5.13
2023-03-23T17:11:47.290Z,5.60
2023-03-23T17:12:48.956Z,3.05
2023-03-23T17:13:50.426Z,5.07
2023-03-23T17:14:51.828Z,4.30
2023-03-23T17:15:56.430Z,3.88
2023-03-23T17:16:58.158Z,3.50
2023-03-23T17:17:59.641Z,3.30
2023-03-23T17:19:01.119Z,3.78
2023-03-23T17:20:02.639Z,5.25
2023-03-23T17:21:04.226Z,4.47
2023-03-23T17:22:05.668Z,3.58
2023-03-23T17:23:07.308Z,7.57
2023-03-23T17:24:09.057Z,9.20
2023-03-23T17:25:11.316Z,7.05
2023-03-23T17:26:12.790Z,8.88
2023-03-23T17:27:16.765Z,6.72
2023-03-23T17:28:19.709Z,7.18
2023-03-23T17:29:22.564Z,7.55
2023-03-23T17:30:24.116Z,5.43
2023-03-23T17:31:26.045Z,5.97
2023-03-23T17:32:27.592Z,6.20
2023-03-23T17:33:29.068Z,5.78
2023-03-23T17:34:30.527Z,4.38
2023-03-23T17:35:31.990Z,5.75
2023-03-23T17:36:33.495Z,4.88
2023-03-23T17:37:36.423Z,4.63
2023-03-23T17:38:37.941Z,7.85
2023-03-23T17:39:43.212Z,5.70
2023-03-23T17:40:45.560Z,4.90
2023-03-23T17:41:47.097Z,6.45
2023-03-23T17:42:48.537Z,6.38
2023-03-23T17:43:49.937Z,4.95
2023-03-23T17:44:51.367Z,6.25
2023-03-23T17:45:53.054Z,5.00
2023-03-23T17:46:56.401Z,5.03
2023-03-23T17:47:58.046Z,6.07
2023-03-23T17:48:59.484Z,5.38
2023-03-23T17:50:00.960Z,6.07
2023-03-23T17:51:13.248Z,4.68
2023-03-23T17:52:14.869Z,4.20
2023-03-23T17:53:18.436Z,4.30
2023-03-23T17:54:19.939Z,6.07
2023-03-23T17:55:21.424Z,5.30
2023-03-23T17:56:22.980Z,5.55
2023-03-23T17:57:24.866Z,4.82
2023-03-23T17:58:26.945Z,6.35
2023-03-23T17:59:29.149Z,5.63
2023-03-23T18:00:30.868Z,6.00
2023-03-23T18:01:32.482Z,6.07
2023-03-23T18:02:34.582Z,5.60
2023-03-23T18:03:37.061Z,6.68
2023-03-23T18:04:38.627Z,5.95
2023-03-23T18:05:40.161Z,6.35
2023-03-23T18:06:41.740Z,5.20
2023-03-23T18:07:43.168Z,6.10
2023-03-23T18:08:44.627Z,5.85
2023-03-23T18:09:46.570Z,4.65
2023-03-23T18:11:50.882Z,5.05
2023-03-23T18:12:52.380Z,7.78
2023-03-23T18:13:54.577Z,8.23
2023-03-23T18:14:59.439Z,5.63
2023-03-23T18:16:03.268Z,7.35
2023-03-23T18:17:05.306Z,6.88
2023-03-23T18:18:06.859Z,7.35
2023-03-23T18:19:08.332Z,7.70
2023-03-23T18:20:09.779Z,7.88
2023-03-23T18:21:11.258Z,7.80
2023-03-23T18:22:12.717Z,6.88
2023-03-23T18:23:14.588Z,10.55
2023-03-23T18:24:16.285Z,9.95
2023-03-23T18:25:17.951Z,6.40
2023-03-23T18:26:21.720Z,6.55
2023-03-23T18:27:23.139Z,9.00
2023-03-23T18:28:25.350Z,7.28
2023-03-23T18:29:26.823Z,8.38
2023-03-23T18:30:28.386Z,6.70
2023-03-23T18:31:30.284Z,6.40
2023-03-23T18:33:36.448Z,6.45
2023-03-23T18:34:40.789Z,11.93
2023-03-23T18:35:42.992Z,7.13
2023-03-23T18:36:44.718Z,4.97
2023-03-23T18:37:47.779Z,7.95
2023-03-23T18:38:49.429Z,5.72
2023-03-23T18:39:50.917Z,6.90
2023-03-23T18:40:52.410Z,5.10
2023-03-23T18:41:53.870Z,6.72
2023-03-23T18:42:55.439Z,7.63
2023-03-23T18:43:57.897Z,7.43
2023-03-23T18:44:59.994Z,6.88
2023-03-23T18:47:04.068Z,8.43
2023-03-23T18:48:06.607Z,10.48
2023-03-23T18:49:08.151Z,9.40
2023-03-23T18:50:10.919Z,10.70
2023-03-23T18:51:12.487Z,9.00
2023-03-23T18:52:13.944Z,8.90
2023-03-23T18:53:16.142Z,7.45
2023-03-23T18:54:17.685Z,9.65
2023-03-23T18:55:20.902Z,8.32
2023-03-23T18:56:23.870Z,6.28
2023-03-23T18:57:25.818Z,6.85
2023-03-23T18:59:30.491Z,9.25
2023-03-23T19:00:33.761Z,7.50
2023-03-23T19:01:35.479Z,7.78
2023-03-23T19:02:39.357Z,8.82
2023-03-23T19:03:41.697Z,6.95
2023-03-23T19:04:43.143Z,6.43
2023-03-23T19:05:45.562Z,9.40
2023-03-23T19:06:47.326Z,7.18
2023-03-23T19:07:48.795Z,8.70
2023-03-23T19:08:52.134Z,6.82
2023-03-23T19:09:53.726Z,6.65
2023-03-23T19:11:03.833Z,6.70
2023-03-23T19:12:05.574Z,7.80
2023-03-23T19:13:08.674Z,9.73
2023-03-23T19:14:10.304Z,9.65
2023-03-23T19:15:11.768Z,8.55
2023-03-23T19:16:13.513Z,12.07
2023-03-23T19:17:16.456Z,9.25
2023-03-23T19:18:17.888Z,9.68
2023-03-23T19:19:19.990Z,8.25
2023-03-23T19:20:54.849Z,10.65
2023-03-23T19:21:47.397Z,8.32
2023-03-23T19:22:49.097Z,9.70
2023-03-23T19:23:50.604Z,9.40
2023-03-23T19:24:52.095Z,10.38
2023-03-23T19:25:54.014Z,7.18
2023-03-23T19:28:49.941Z,7.25
2023-03-23T19:29:26.658Z,7.07
2023-03-23T19:30:28.835Z,7.03
2023-03-23T19:31:30.503Z,9.90
2023-03-23T19:32:33.429Z,7.43
2023-03-23T19:33:34.920Z,8.27
2023-03-23T19:34:36.983Z,8.10
2023-03-23T19:35:39.079Z,9.75
2023-03-23T19:36:40.975Z,8.35
2023-03-23T19:37:42.547Z,7.47
2023-03-23T19:38:44.131Z,7.63
2023-03-23T19:39:45.639Z,9.70
2023-03-23T19:40:56.036Z,9.32
2023-03-23T19:41:58.402Z,8.75
2023-03-23T19:42:59.945Z,8.63
2023-03-23T19:44:03.509Z,11.10
2023-03-23T19:45:05.782Z,8.98
2023-03-23T19:46:07.608Z,7.35
2023-03-23T19:47:10.005Z,9.60
2023-03-23T19:48:12.154Z,7.43
2023-03-23T19:49:14.686Z,7.88
2023-03-23T19:50:16.688Z,10.98
2023-03-23T19:52:20.854Z,9.55
2023-03-23T19:54:24.681Z,7.72
2023-03-23T19:55:26.149Z,11.13
2023-03-23T19:56:29.953Z,7.45
2023-03-23T19:57:32.269Z,9.10
2023-03-23T19:58:34.622Z,8.05
2023-03-23T19:59:37.065Z,11.35
2023-03-23T20:00:38.856Z,8.80
2023-03-23T20:01:40.874Z,10.32
2023-03-23T20:02:42.506Z,11.70
2023-03-23T20:03:45.358Z,11.88
2023-03-23T20:04:47.327Z,10.80
2023-03-23T20:05:49.576Z,7.57
2023-03-23T20:06:52.133Z,8.88
2023-03-23T20:07:54.470Z,6.80
2023-03-23T20:08:56.458Z,6.65
2023-03-23T20:11:13.599Z,9.88
2023-03-23T20:12:15.320Z,7.75
2023-03-23T20:13:17.389Z,9.23
2023-03-23T20:14:19.328Z,8.07
2023-03-23T20:15:21.089Z,8.55
2023-03-23T20:16:23.689Z,9.65
2023-03-23T20:17:26.131Z,8.70
2023-03-23T20:18:29.755Z,8.48
2023-03-23T20:19:31.380Z,8.23
2023-03-23T20:20:36.495Z,9.65
2023-03-23T20:21:39.558Z,8.52
2023-03-23T20:22:41.632Z,6.47
2023-03-23T20:23:43.972Z,7.82
2023-03-23T20:24:48.301Z,7.68
2023-03-23T20:25:51.007Z,6.82
2023-03-23T20:26:53.085Z,7.35
2023-03-23T20:27:55.727Z,8.48
2023-03-23T20:28:57.245Z,8.43
2023-03-23T20:29:58.784Z,8.65
2023-03-23T20:31:19.926Z,6.72
2023-03-23T20:32:24.422Z,9.20
2023-03-23T20:33:26.473Z,9.73
2023-03-23T20:34:30.994Z,8.05
2023-03-23T20:35:32.551Z,10.80
2023-03-23T20:36:48.889Z,8.63
2023-03-23T20:37:53.207Z,7.97
2023-03-23T20:38:54.653Z,9.50
2023-03-23T20:39:56.066Z,7.10
2023-03-23T20:40:57.553Z,9.00
2023-03-23T20:42:06.492Z,6.95
2023-03-23T20:43:10.774Z,8.73
2023-03-23T20:44:13.578Z,10.10
2023-03-23T20:45:16.494Z,10.40
2023-03-23T20:46:18.194Z,8.02
2023-03-23T20:47:20.375Z,9.30
2023-03-23T20:48:21.845Z,9.30
2023-03-23T20:49:24.254Z,8.68
2023-03-23T20:50:25.663Z,11.57
2023-03-23T20:51:27.613Z,9.52
2023-03-23T20:53:31.747Z,8.23
2023-03-23T20:54:33.234Z,9.88
2023-03-23T20:55:34.746Z,13.07
2023-03-23T20:56:37.263Z,8.95
2023-03-23T20:57:40.205Z,11.50
2023-03-23T20:58:42.470Z,10.05
2023-03-23T20:59:43.947Z,9.35
2023-03-23T21:00:47.043Z,10.40
2023-03-23T21:01:49.912Z,12.15
2023-03-23T21:02:54.047Z,9.15
2023-03-23T21:03:56.954Z,9.15
2023-03-23T21:04:58.534Z,9.65
2023-03-23T21:06:01.746Z,11.10
2023-03-23T21:07:03.693Z,9.00
2023-03-23T21:09:06.759Z,9.65
2023-03-23T21:10:08.735Z,18.40
2023-03-23T21:12:15.228Z,11.05
2023-03-23T21:13:17.313Z,9.25
2023-03-23T21:14:18.888Z,8.80
2023-03-23T21:15:21.488Z,9.93
2023-03-23T21:16:24.264Z,12.05
2023-03-23T21:17:25.930Z,10.57
2023-03-23T21:18:28.604Z,11.88
2023-03-23T21:19:30.278Z,11.20
2023-03-23T21:20:31.910Z,10.45
2023-03-23T21:21:34.153Z,12.27
2023-03-23T21:22:35.626Z,11.73
2023-03-23T21:23:38.422Z,10.43
2023-03-23T21:24:41.934Z,9.75
2023-03-23T21:25:44.641Z,12.20
2023-03-23T21:26:46.169Z,11.10
2023-03-23T21:27:54.741Z,9.50
2023-03-23T21:28:59.656Z,13.95
2023-03-23T21:30:01.187Z,11.25
2023-03-23T21:31:05.024Z,11.75
2023-03-23T21:32:08.749Z,9.68
2023-03-23T21:33:11.188Z,13.32
2023-03-23T21:34:13.850Z,10.82
2023-03-23T21:35:15.266Z,12.25
2023-03-23T21:36:16.774Z,8.88
2023-03-23T21:37:18.705Z,14.55
2023-03-23T21:39:22.382Z,11.80
2023-03-23T21:40:24.435Z,10.20
2023-03-23T21:42:31.066Z,12.68
2023-03-23T21:43:33.080Z,13.40
2023-03-23T21:45:38.042Z,12.43
2023-03-23T21:46:42.000Z,11.38
2023-03-23T21:47:43.436Z,14.60
2023-03-23T21:48:51.292Z,13.95
2023-03-23T21:49:56.501Z,13.93
2023-03-23T21:51:04.626Z,11.82
2023-03-23T21:52:06.149Z,13.30
2023-03-23T21:53:09.951Z,12.32
2023-03-23T21:54:11.737Z,12.35
2023-03-23T21:55:14.073Z,14.48
2023-03-23T21:56:15.747Z,19.58
2023-03-23T21:57:17.680Z,14.60
2023-03-23T21:58:21.322Z,15.43
2023-03-23T21:59:23.007Z,9.70
2023-03-23T22:00:24.477Z,12.40
2023-03-23T22:01:28.124Z,10.55
2023-03-23T22:02:29.637Z,12.15
2023-03-23T22:03:32.741Z,14.77
2023-03-23T22:04:34.232Z,12.05
2023-03-23T22:05:39.746Z,16.13
2023-03-23T22:06:42.311Z,15.20
2023-03-23T22:07:46.263Z,16.08
2023-03-23T22:08:48.056Z,15.02
2023-03-23T22:09:50.364Z,13.02
2023-03-23T22:11:00.989Z,17.25
2023-03-23T22:12:03.670Z,16.48
2023-03-23T22:13:05.185Z,17.05
2023-03-23T22:14:06.973Z,15.57
2023-03-23T22:15:12.608Z,18.13
2023-03-23T22:16:17.722Z,14.23
2023-03-23T22:17:19.415Z,13.05
2023-03-23T22:18:21.218Z,12.98
2023-03-23T22:19:22.740Z,16.88
2023-03-23T22:20:25.452Z,14.13
2023-03-23T22:21:27.185Z,15.98
2023-03-23T22:22:28.681Z,16.20
2023-03-23T22:23:30.259Z,14.48
2023-03-23T22:24:32.248Z,16.48
2023-03-23T22:26:35.584Z,13.65
2023-03-23T22:27:37.059Z,16.65
2023-03-23T22:28:39.659Z,15.82
2023-03-23T22:29:41.135Z,15.00
2023-03-23T22:30:42.661Z,15.35
2023-03-23T22:31:45.305Z,15.50
2023-03-23T22:32:46.977Z,14.48
2023-03-23T22:33:50.089Z,14.05
2023-03-23T22:34:51.966Z,12.65
2023-03-23T22:35:53.526Z,14.07
2023-03-23T22:36:56.306Z,13.98
2023-03-23T22:37:57.802Z,15.65
2023-03-23T22:39:00.599Z,11.38
2023-03-23T22:40:02.121Z,13.15
2023-03-23T22:41:06.986Z,17.80
2023-03-23T22:42:08.576Z,11.48
2023-03-23T22:43:10.472Z,17.73
2023-03-23T22:44:15.230Z,17.08
2023-03-23T22:45:17.249Z,15.52
2023-03-23T22:47:20.189Z,15.60
2023-03-23T22:48:23.539Z,14.82
2023-03-23T22:49:25.278Z,15.77
2023-03-23T22:50:27.636Z,15.02
2023-03-23T22:51:29.235Z,15.70
2023-03-23T22:52:31.505Z,15.48
2023-03-23T22:53:32.981Z,19.35
2023-03-23T22:54:34.619Z,13.50
2023-03-23T22:55:36.077Z,12.10
2023-03-23T22:56:38.252Z,15.23
2023-03-23T22:57:39.834Z,18.73
2023-03-23T22:58:41.382Z,21.17
2023-03-23T22:59:42.905Z,15.30
2023-03-23T23:00:47.060Z,15.43
2023-03-23T23:01:48.798Z,16.75
2023-03-23T23:02:50.503Z,19.67
2023-03-23T23:03:52.569Z,14.73
2023-03-23T23:05:57.709Z,19.02
2023-03-23T23:07:11.937Z,16.83
2023-03-23T23:08:17.753Z,16.23
2023-03-23T23:09:20.199Z,17.33
2023-03-23T23:10:21.715Z,13.38
2023-03-23T23:11:25.485Z,21.60
2023-03-23T23:12:29.798Z,17.23
2023-03-23T23:13:33.232Z,19.50
2023-03-23T23:14:34.871Z,18.35
2023-03-23T23:15:37.735Z,17.38
2023-03-23T23:16:39.281Z,17.48
2023-03-23T23:17:42.010Z,18.25
2023-03-23T23:18:44.443Z,19.75
2023-03-23T23:19:46.382Z,21.52
2023-03-23T23:20:50.290Z,19.67
2023-03-23T23:21:51.786Z,23.08
2023-03-23T23:22:53.343Z,17.48
2023-03-23T23:23:55.150Z,18.23
2023-03-23T23:24:56.814Z,15.25
2023-03-23T23:25:58.403Z,20.88
2023-03-23T23:27:00.006Z,19.42
2023-03-23T23:28:03.327Z,21.45
2023-03-23T23:29:04.917Z,15.23
2023-03-23T23:30:08.452Z,14.90
2023-03-23T23:31:22.686Z,16.75
2023-03-23T23:32:24.966Z,18.73
2023-03-23T23:33:26.842Z,16.30
2023-03-23T23:34:28.607Z,15.60
2023-03-23T23:35:30.427Z,15.02
2023-03-23T23:36:32.477Z,17.70
2023-03-23T23:38:35.469Z,12.90
2023-03-23T23:39:40.667Z,14.20
2023-03-23T23:40:44.097Z,17.55
2023-03-23T23:41:45.821Z,9.77
2023-03-23T23:42:49.853Z,16.65
2023-03-23T23:43:51.613Z,12.95
2023-03-23T23:44:53.102Z,15.15
2023-03-23T23:45:54.580Z,13.52
2023-03-23T23:46:57.490Z,15.70
2023-03-23T23:47:59.712Z,13.52
2023-03-23T23:49:01.293Z,15.77
2023-03-23T23:50:03.746Z,14.63
2023-03-23T23:51:05.805Z,10.60
2023-03-23T23:53:10.849Z,11.23
2023-03-23T23:54:22.445Z,10.75
2023-03-23T23:55:24.922Z,13.30
2023-03-23T23:56:26.433Z,11.50
2023-03-23T23:57:28.001Z,14.15
2023-03-23T23:58:29.954Z,13.18
2023-03-23T23:59:32.259Z,11.70
